Time;durP1;ratioP1;P1;durP2;ratioP2;P2;SDS_P1;SDS_P2;PMS_P1;PMS_P2;Temp;Humidity;BMP_temperature;BMP_pressure;BME280_temperature;BME280_humidity;BME280_pressure;Samples;Min_cycle;Max_cycle;Signal;HPM_P1;HPM_P2
2022/04/14 00:01:50;;;;;;;4.50;3.03;;;;;;;;;;5011791;28;20128;-77
2022/04/14 00:04:17;;;;;;;3.58;2.72;;;;;;;;;;5016109;28;20148;-77
2022/04/14 00:06:43;;;;;;;4.40;3.08;;;;;;;;;;5014403;28;20534;-77
2022/04/14 00:09:10;;;;;;;5.00;2.83;;;;;;;;;;5011096;28;20043;-78
2022/04/14 00:11:38;;;;;;;5.43;3.05;;;;;;;;;;5011111;28;20555;-77
2022/04/14 00:14:06;;;;;;;4.13;3.13;;;;;;;;;;5012002;28;20052;-77
2022/04/14 00:16:33;;;;;;;5.90;3.40;;;;;;;;;;5011132;28;20049;-77
2022/04/14 00:18:59;;;;;;;4.70;3.00;;;;;;;;;;5010200;28;20081;-77
2022/04/14 00:21:26;;;;;;;6.30;3.13;;;;;;;;;;5012141;28;20607;-77
2022/04/14 00:23:53;;;;;;;7.13;4.18;;;;;;;;;;5014330;28;20069;-77
2022/04/14 00:26:19;;;;;;;6.45;3.10;;;;;;;;;;5015598;28;20469;-77
2022/04/14 00:28:46;;;;;;;8.13;3.67;;;;;;;;;;5009645;28;20038;-77
2022/04/14 00:31:14;;;;;;;5.75;3.30;;;;;;;;;;5013110;28;20125;-77
2022/04/14 00:33:40;;;;;;;6.65;3.40;;;;;;;;;;5011612;28;20518;-77
2022/04/14 00:36:07;;;;;;;5.65;3.88;;;;;;;;;;5009051;28;20128;-77
2022/04/14 00:38:33;;;;;;;6.20;3.80;;;;;;;;;;5009000;28;20145;-77
2022/04/14 00:41:00;;;;;;;6.30;3.30;;;;;;;;;;5009130;28;20132;-77
2022/04/14 00:43:31;;;;;;;5.25;3.28;;;;;;;;;;5014463;28;20048;-77
2022/04/14 00:45:59;;;;;;;6.82;3.58;;;;;;;;;;5009744;28;20037;-77
2022/04/14 00:48:27;;;;;;;4.43;3.42;;;;;;;;;;5011130;28;20619;-77
2022/04/14 00:50:53;;;;;;;5.18;3.15;;;;;;;;;;5011468;28;20132;-78
2022/04/14 00:53:22;;;;;;;5.97;3.67;;;;;;;;;;5010835;28;20137;-77
2022/04/14 00:55:49;;;;;;;5.82;3.88;;;;;;;;;;5013034;28;20591;-77
2022/04/14 00:58:15;;;;;;;5.78;3.90;;;;;;;;;;5008303;28;20181;-77
2022/04/14 01:00:42;;;;;;;10.13;4.32;;;;;;;;;;5008187;28;20052;-77
2022/04/14 01:03:09;;;;;;;6.32;4.30;;;;;;;;;;5011041;28;20136;-78
2022/04/14 01:05:38;;;;;;;5.85;4.22;;;;;;;;;;5012088;28;20084;-77
2022/04/14 01:08:05;;;;;;;4.82;3.70;;;;;;;;;;5011415;28;20140;-78
2022/04/14 01:10:32;;;;;;;6.95;4.00;;;;;;;;;;5011831;28;20408;-77
2022/04/14 01:13:00;;;;;;;5.65;4.07;;;;;;;;;;5009133;28;20141;-77
2022/04/14 01:15:27;;;;;;;6.00;3.75;;;;;;;;;;5010049;28;20180;-77
2022/04/14 01:17:53;;;;;;;5.68;3.78;;;;;;;;;;5012763;28;20038;-77
2022/04/14 01:20:20;;;;;;;5.90;3.20;;;;;;;;;;5008313;28;20140;-77
2022/04/14 01:22:54;;;;;;;5.40;3.88;;;;;;;;;;5014422;28;20133;-77
2022/04/14 01:25:22;;;;;;;5.10;3.38;;;;;;;;;;5014275;28;20128;-77
2022/04/14 01:27:50;;;;;;;6.72;4.25;;;;;;;;;;5011665;28;20137;-78
2022/04/14 01:30:42;;;;;;;5.20;3.75;;;;;;;;;;5006763;28;20615;-77
2022/04/14 01:33:11;;;;;;;10.00;3.80;;;;;;;;;;5010420;28;20049;-77
2022/04/14 01:35:38;;;;;;;6.10;3.58;;;;;;;;;;5010876;28;20078;-77
2022/04/14 01:38:06;;;;;;;9.77;4.20;;;;;;;;;;5017101;28;20052;-78
2022/04/14 01:40:34;;;;;;;5.85;3.30;;;;;;;;;;5013989;28;20125;-77
2022/04/14 01:43:01;;;;;;;6.85;3.88;;;;;;;;;;5011260;28;20133;-77
2022/04/14 01:45:27;;;;;;;5.65;3.75;;;;;;;;;;5007890;28;20180;-77
2022/04/14 01:47:54;;;;;;;5.30;3.70;;;;;;;;;;5012340;28;20136;-78
2022/04/14 01:50:20;;;;;;;8.30;5.03;;;;;;;;;;5013129;28;20124;-78
2022/04/14 01:52:47;;;;;;;5.15;3.00;;;;;;;;;;5008460;28;20045;-76
2022/04/14 01:55:14;;;;;;;4.93;3.53;;;;;;;;;;5016205;28;20505;-76
2022/04/14 01:57:42;;;;;;;5.07;3.53;;;;;;;;;;5009612;28;20084;-77
2022/04/14 02:00:10;;;;;;;6.45;3.90;;;;;;;;;;5008065;28;20145;-77
2022/04/14 02:02:36;;;;;;;8.18;4.13;;;;;;;;;;5009440;28;20079;-77
2022/04/14 02:05:03;;;;;;;6.40;3.85;;;;;;;;;;5007047;28;20933;-77
2022/04/14 02:07:29;;;;;;;5.93;3.83;;;;;;;;;;5012077;28;20152;-77
2022/04/14 02:09:56;;;;;;;8.38;4.25;;;;;;;;;;5011247;28;20129;-77
2022/04/14 02:12:24;;;;;;;5.15;3.40;;;;;;;;;;5009917;28;20129;-77
2022/04/14 02:14:53;;;;;;;5.28;3.28;;;;;;;;;;5011019;28;20494;-78
2022/04/14 02:17:20;;;;;;;7.18;3.95;;;;;;;;;;5016284;28;20038;-77
2022/04/14 02:19:47;;;;;;;6.72;4.50;;;;;;;;;;5016687;28;20451;-77
2022/04/14 02:22:13;;;;;;;6.60;3.95;;;;;;;;;;5015148;28;20057;-77
2022/04/14 02:24:40;;;;;;;5.25;3.67;;;;;;;;;;5012256;28;20137;-77
2022/04/14 02:27:07;;;;;;;7.50;4.22;;;;;;;;;;5012378;28;20048;-77
2022/04/14 02:29:33;;;;;;;6.38;3.60;;;;;;;;;;5014618;28;20176;-77
2022/04/14 02:32:01;;;;;;;6.75;3.72;;;;;;;;;;5012501;28;20044;-77
2022/04/14 02:34:28;;;;;;;6.45;4.00;;;;;;;;;;5015774;28;20152;-77
2022/04/14 02:36:55;;;;;;;6.45;4.13;;;;;;;;;;5013472;28;20033;-77
2022/04/14 02:39:21;;;;;;;6.07;3.83;;;;;;;;;;5012503;28;20050;-77
2022/04/14 02:41:48;;;;;;;6.13;4.00;;;;;;;;;;5012689;28;20037;-77
2022/04/14 02:44:14;;;;;;;6.10;4.50;;;;;;;;;;5015648;28;20136;-77
2022/04/14 02:46:41;;;;;;;6.07;4.07;;;;;;;;;;5013318;28;20125;-77
2022/04/14 02:49:09;;;;;;;8.05;4.28;;;;;;;;;;5015623;28;20446;-77
2022/04/14 02:51:35;;;;;;;6.07;4.35;;;;;;;;;;5015558;28;20121;-77
2022/04/14 02:54:02;;;;;;;7.35;4.97;;;;;;;;;;5013260;28;20069;-77
2022/04/14 02:56:28;;;;;;;5.47;3.70;;;;;;;;;;5013294;28;20069;-77
2022/04/14 02:58:55;;;;;;;7.70;3.40;;;;;;;;;;5013432;28;20482;-77
2022/04/14 03:01:21;;;;;;;8.18;4.22;;;;;;;;;;5012800;28;20069;-77
2022/04/14 03:03:48;;;;;;;8.18;4.82;;;;;;;;;;5019852;28;20128;-77
2022/04/14 03:06:16;;;;;;;4.75;3.40;;;;;;;;;;5018516;28;20124;-77
2022/04/14 03:08:42;;;;;;;6.25;4.18;;;;;;;;;;5016254;28;20117;-77
2022/04/14 03:11:09;;;;;;;6.75;4.15;;;;;;;;;;5012990;28;20071;-77
2022/04/14 03:13:36;;;;;;;8.80;4.47;;;;;;;;;;5016219;28;21718;-77
2022/04/14 03:16:02;;;;;;;7.20;5.05;;;;;;;;;;5013755;28;20133;-77
2022/04/14 03:18:29;;;;;;;5.97;4.20;;;;;;;;;;5014568;28;20128;-77
2022/04/14 03:20:55;;;;;;;6.38;4.15;;;;;;;;;;5018236;28;20073;-77
2022/04/14 03:23:24;;;;;;;6.15;4.05;;;;;;;;;;5014936;28;20428;-77
2022/04/14 03:25:50;;;;;;;5.88;3.78;;;;;;;;;;5018742;28;20084;-77
2022/04/14 03:28:17;;;;;;;7.70;4.35;;;;;;;;;;5015823;28;20250;-77
2022/04/14 03:30:43;;;;;;;8.02;5.03;;;;;;;;;;5013204;28;20073;-77
2022/04/14 03:33:10;;;;;;;8.88;6.22;;;;;;;;;;5011647;28;20559;-77
2022/04/14 03:35:36;;;;;;;6.95;4.45;;;;;;;;;;5009921;28;20128;-77
2022/04/14 03:38:03;;;;;;;6.10;4.20;;;;;;;;;;5017984;28;20172;-77
2022/04/14 03:40:31;;;;;;;6.95;4.18;;;;;;;;;;5014424;28;20789;-77
2022/04/14 03:42:57;;;;;;;7.82;3.88;;;;;;;;;;5018349;28;20125;-77
2022/04/14 03:45:24;;;;;;;6.72;4.13;;;;;;;;;;5009148;28;20081;-77
2022/04/14 03:47:51;;;;;;;5.32;3.83;;;;;;;;;;5008726;28;20062;-77
2022/04/14 03:50:17;;;;;;;7.13;4.10;;;;;;;;;;5018087;28;20045;-77
2022/04/14 03:52:44;;;;;;;6.32;4.43;;;;;;;;;;5014367;28;20468;-77
2022/04/14 03:55:10;;;;;;;6.97;4.13;;;;;;;;;;5017016;28;20133;-77
2022/04/14 03:57:38;;;;;;;6.50;3.88;;;;;;;;;;5012009;28;20077;-77
2022/04/14 04:00:06;;;;;;;8.85;4.78;;;;;;;;;;5015743;28;20132;-77
2022/04/14 04:02:35;;;;;;;6.80;4.22;;;;;;;;;;5009261;28;20045;-77
2022/04/14 04:05:02;;;;;;;5.65;3.90;;;;;;;;;;5012491;28;20065;-77
2022/04/14 04:07:28;;;;;;;7.78;3.53;;;;;;;;;;5016719;28;20052;-77
2022/04/14 04:09:55;;;;;;;5.60;3.90;;;;;;;;;;5009216;28;20145;-77
2022/04/14 04:12:21;;;;;;;6.47;4.15;;;;;;;;;;5016948;28;20136;-77
2022/04/14 04:14:50;;;;;;;8.40;4.57;;;;;;;;;;5010748;28;20050;-77
2022/04/14 04:17:16;;;;;;;9.98;5.13;;;;;;;;;;5014998;28;20037;-77
2022/04/14 04:19:43;;;;;;;6.05;3.85;;;;;;;;;;5012378;28;20101;-77
2022/04/14 04:22:09;;;;;;;5.82;3.83;;;;;;;;;;5016079;28;20041;-77
2022/04/14 04:24:36;;;;;;;8.45;4.55;;;;;;;;;;5010195;28;20129;-77
2022/04/14 04:27:02;;;;;;;7.13;4.30;;;;;;;;;;5014686;28;20069;-77
2022/04/14 04:29:29;;;;;;;7.53;4.50;;;;;;;;;;5010678;28;20144;-77
2022/04/14 04:31:57;;;;;;;8.13;4.20;;;;;;;;;;5013900;28;20474;-77
2022/04/14 04:34:24;;;;;;;6.40;4.60;;;;;;;;;;5012219;28;20133;-77
2022/04/14 04:36:51;;;;;;;9.38;4.30;;;;;;;;;;5013301;28;20060;-77
2022/04/14 04:39:17;;;;;;;7.63;4.25;;;;;;;;;;5011803;28;20143;-77
2022/04/14 04:41:44;;;;;;;6.05;3.83;;;;;;;;;;5016214;28;20554;-77
2022/04/14 04:44:10;;;;;;;8.23;4.43;;;;;;;;;;5011850;28;20698;-77
2022/04/14 04:46:37;;;;;;;6.80;4.07;;;;;;;;;;5013335;28;20134;-77
2022/04/14 04:49:05;;;;;;;6.18;3.95;;;;;;;;;;5011849;28;20065;-77
2022/04/14 04:51:31;;;;;;;6.68;3.95;;;;;;;;;;5009323;28;20077;-77
2022/04/14 04:53:58;;;;;;;6.95;4.82;;;;;;;;;;5009591;28;20399;-77
2022/04/14 04:56:25;;;;;;;6.35;3.85;;;;;;;;;;5012806;28;20109;-75
2022/04/14 04:58:51;;;;;;;7.13;4.35;;;;;;;;;;5014663;28;20037;-75
2022/04/14 05:01:18;;;;;;;8.27;4.22;;;;;;;;;;5013494;28;20077;-76
2022/04/14 05:03:44;;;;;;;7.57;4.57;;;;;;;;;;5004849;28;20133;-76
2022/04/14 05:06:12;;;;;;;6.97;4.50;;;;;;;;;;5006819;28;20133;-76
2022/04/14 05:08:39;;;;;;;7.78;4.00;;;;;;;;;;5007800;28;20061;-75
2022/04/14 05:11:06;;;;;;;8.07;5.18;;;;;;;;;;5005853;28;20132;-75
2022/04/14 05:13:32;;;;;;;7.47;4.65;;;;;;;;;;5008522;28;20545;-76
2022/04/14 05:15:59;;;;;;;6.20;4.40;;;;;;;;;;5007109;28;20080;-75
2022/04/14 05:18:25;;;;;;;7.72;4.30;;;;;;;;;;5007634;28;20046;-75
2022/04/14 05:20:52;;;;;;;6.85;4.30;;;;;;;;;;5007396;28;20093;-75
2022/04/14 05:23:20;;;;;;;7.38;5.05;;;;;;;;;;5005762;28;20230;-75
2022/04/14 05:25:46;;;;;;;7.57;4.50;;;;;;;;;;5007100;28;20133;-75
2022/04/14 05:28:13;;;;;;;8.32;4.05;;;;;;;;;;5005709;28;20449;-75
2022/04/14 05:30:43;;;;;;;6.65;4.30;;;;;;;;;;5004573;28;20089;-75
2022/04/14 05:33:10;;;;;;;6.68;4.00;;;;;;;;;;5003888;28;20141;-75
2022/04/14 05:35:37;;;;;;;8.25;4.78;;;;;;;;;;5005496;28;20061;-75
2022/04/14 05:38:05;;;;;;;8.02;4.55;;;;;;;;;;5004511;28;20084;-75
2022/04/14 05:40:34;;;;;;;7.82;4.82;;;;;;;;;;5007227;28;20099;-76
2022/04/14 05:43:01;;;;;;;8.57;5.00;;;;;;;;;;5001508;28;20065;-76
2022/04/14 05:45:28;;;;;;;9.70;4.80;;;;;;;;;;5000839;28;20539;-74
2022/04/14 05:47:54;;;;;;;8.60;5.20;;;;;;;;;;5004972;28;20038;-75
2022/04/14 05:50:21;;;;;;;7.45;4.55;;;;;;;;;;5007319;28;20069;-75
2022/04/14 05:52:47;;;;;;;7.32;4.90;;;;;;;;;;5012085;28;20066;-74
2022/04/14 05:55:14;;;;;;;9.98;4.95;;;;;;;;;;5012206;28;20494;-76
2022/04/14 05:57:42;;;;;;;7.50;5.53;;;;;;;;;;5012017;28;20138;-76
2022/04/14 06:00:10;;;;;;;9.20;5.00;;;;;;;;;;5013204;28;20082;-75
2022/04/14 06:02:36;;;;;;;7.07;4.68;;;;;;;;;;5013068;28;20125;-77
2022/04/14 06:05:03;;;;;;;9.38;5.43;;;;;;;;;;5012830;28;20097;-77
2022/04/14 06:07:30;;;;;;;6.97;4.60;;;;;;;;;;5012477;28;20116;-77
2022/04/14 06:09:56;;;;;;;8.38;4.85;;;;;;;;;;5011243;28;20127;-75
2022/04/14 06:12:23;;;;;;;8.02;4.70;;;;;;;;;;5012421;28;20081;-74
2022/04/14 06:14:51;;;;;;;9.88;5.75;;;;;;;;;;5012134;28;20088;-74
2022/04/14 06:17:18;;;;;;;7.40;5.63;;;;;;;;;;5012252;28;20133;-77
2022/04/14 06:19:44;;;;;;;10.18;8.00;;;;;;;;;;5011943;28;20092;-76
2022/04/14 06:22:11;;;;;;;11.65;7.53;;;;;;;;;;5013005;28;20046;-75
2022/04/14 06:24:37;;;;;;;9.55;7.15;;;;;;;;;;5009891;28;20069;-77
2022/04/14 06:27:05;;;;;;;13.48;6.90;;;;;;;;;;5009481;28;20065;-77
2022/04/14 06:29:32;;;;;;;11.38;7.32;;;;;;;;;;5009851;28;20049;-75
2022/04/14 06:32:00;;;;;;;11.20;7.40;;;;;;;;;;5011297;28;20096;-74
2022/04/14 06:34:26;;;;;;;11.32;7.00;;;;;;;;;;5011148;28;20065;-75
2022/04/14 06:36:53;;;;;;;13.20;7.38;;;;;;;;;;5011337;28;20135;-75
2022/04/14 06:39:19;;;;;;;10.48;7.75;;;;;;;;;;5015580;28;20874;-75
2022/04/14 06:41:46;;;;;;;11.55;7.57;;;;;;;;;;5017793;28;20132;-75
2022/04/14 06:44:12;;;;;;;11.70;7.57;;;;;;;;;;5013004;28;20128;-77
2022/04/14 06:46:39;;;;;;;12.52;7.32;;;;;;;;;;5012782;28;20042;-77
2022/04/14 06:49:07;;;;;;;13.48;7.38;;;;;;;;;;5012427;28;20576;-77
2022/04/14 06:51:34;;;;;;;10.13;6.97;;;;;;;;;;5012238;28;20132;-77
2022/04/14 06:54:00;;;;;;;15.77;8.85;;;;;;;;;;5012226;28;20038;-77
2022/04/14 06:56:27;;;;;;;10.88;7.55;;;;;;;;;;5011460;28;20063;-76
2022/04/14 06:58:53;;;;;;;11.38;7.90;;;;;;;;;;5011131;28;20120;-78
2022/04/14 07:01:20;;;;;;;13.90;7.55;;;;;;;;;;5014918;28;20073;-78
2022/04/14 07:03:46;;;;;;;12.13;8.07;;;;;;;;;;5012081;28;20053;-78
2022/04/14 07:06:14;;;;;;;12.93;7.97;;;;;;;;;;5012934;28;20746;-77
2022/04/14 07:08:41;;;;;;;12.02;7.65;;;;;;;;;;5012530;28;20124;-77
2022/04/14 07:11:08;;;;;;;16.10;8.25;;;;;;;;;;5013709;28;20413;-77
2022/04/14 07:13:34;;;;;;;12.95;8.05;;;;;;;;;;5012365;28;20125;-78
2022/04/14 07:16:01;;;;;;;10.98;7.38;;;;;;;;;;5011921;28;20471;-77
2022/04/14 07:18:28;;;;;;;11.70;8.25;;;;;;;;;;5011718;28;20511;-77
2022/04/14 07:20:54;;;;;;;10.63;7.05;;;;;;;;;;5011703;28;20037;-77
2022/04/14 07:23:22;;;;;;;13.10;8.63;;;;;;;;;;5009570;28;20105;-77
2022/04/14 07:25:49;;;;;;;13.80;7.72;;;;;;;;;;5010509;28;20103;-78
2022/04/14 07:28:16;;;;;;;11.73;8.05;;;;;;;;;;5012051;28;20154;-78
2022/04/14 07:30:42;;;;;;;13.48;7.18;;;;;;;;;;5008575;28;20652;-78
2022/04/14 07:33:09;;;;;;;12.55;8.20;;;;;;;;;;5011798;28;20931;-79
2022/04/14 07:35:35;;;;;;;9.63;6.88;;;;;;;;;;5006492;28;20041;-81
2022/04/14 07:38:02;;;;;;;11.43;7.57;;;;;;;;;;5014866;28;20666;-79
2022/04/14 07:40:30;;;;;;;11.25;7.93;;;;;;;;;;5011493;28;20125;-78
2022/04/14 07:42:57;;;;;;;12.68;8.32;;;;;;;;;;5010600;28;20068;-79
2022/04/14 07:45:24;;;;;;;15.90;7.57;;;;;;;;;;5008450;28;20045;-77
2022/04/14 07:47:51;;;;;;;14.18;7.70;;;;;;;;;;5013081;28;20061;-77
2022/04/14 07:50:20;;;;;;;12.02;7.75;;;;;;;;;;5009655;28;20057;-78
2022/04/14 07:52:48;;;;;;;11.75;7.18;;;;;;;;;;5007453;28;20092;-77
2022/04/14 07:55:22;;;;;;;15.45;7.43;;;;;;;;;;5008668;28;21720;-79
2022/04/14 07:57:50;;;;;;;13.40;7.43;;;;;;;;;;5007639;28;20108;-78
2022/04/14 08:00:18;;;;;;;11.52;7.18;;;;;;;;;;5013198;28;20065;-77
2022/04/14 08:02:49;;;;;;;10.77;7.25;;;;;;;;;;5012861;28;20085;-80
2022/04/14 08:05:16;;;;;;;10.48;7.20;;;;;;;;;;5014232;28;20067;-81
2022/04/14 08:07:43;;;;;;;11.45;7.18;;;;;;;;;;5010416;28;20049;-77
2022/04/14 08:10:09;;;;;;;9.52;7.05;;;;;;;;;;5008587;28;20083;-78
2022/04/14 08:12:36;;;;;;;11.32;6.63;;;;;;;;;;5009474;28;20136;-79
2022/04/14 08:15:05;;;;;;;10.85;7.82;;;;;;;;;;5008667;28;20050;-78
2022/04/14 08:17:33;;;;;;;10.00;7.25;;;;;;;;;;5008132;28;20126;-77
2022/04/14 08:19:59;;;;;;;10.20;7.00;;;;;;;;;;5005559;28;20044;-77
2022/04/14 08:22:26;;;;;;;10.38;6.63;;;;;;;;;;5005601;28;20045;-76
2022/04/14 08:24:53;;;;;;;7.95;6.25;;;;;;;;;;5005385;28;20038;-77
2022/04/14 08:27:19;;;;;;;10.13;6.35;;;;;;;;;;5006990;28;21825;-76
2022/04/14 08:29:46;;;;;;;9.95;6.53;;;;;;;;;;5003913;28;20054;-77
2022/04/14 08:32:14;;;;;;;13.27;6.80;;;;;;;;;;5006063;28;20054;-79
2022/04/14 08:34:44;;;;;;;9.93;6.53;;;;;;;;;;5007465;28;20045;-78
2022/04/14 08:37:11;;;;;;;10.07;5.78;;;;;;;;;;5006956;28;20100;-77
2022/04/14 08:39:38;;;;;;;11.57;6.28;;;;;;;;;;5010539;28;20131;-77
2022/04/14 08:42:09;;;;;;;9.27;6.18;;;;;;;;;;5013144;28;20080;-79
2022/04/14 08:44:37;;;;;;;11.50;6.45;;;;;;;;;;5010507;28;20127;-80
2022/04/14 08:47:06;;;;;;;8.90;6.05;;;;;;;;;;5009881;28;20045;-78
2022/04/14 08:49:34;;;;;;;9.68;6.30;;;;;;;;;;5014005;28;20046;-78
2022/04/14 08:52:02;;;;;;;11.60;6.20;;;;;;;;;;5009544;28;20129;-77
2022/04/14 08:54:29;;;;;;;9.98;6.88;;;;;;;;;;5008938;28;20061;-78
2022/04/14 08:56:58;;;;;;;11.93;6.28;;;;;;;;;;5013656;28;20069;-78
2022/04/14 08:59:25;;;;;;;12.98;6.78;;;;;;;;;;5009762;28;20057;-79
2022/04/14 09:01:52;;;;;;;10.70;6.15;;;;;;;;;;5013010;28;20033;-80
2022/04/14 09:04:18;;;;;;;9.45;5.97;;;;;;;;;;5014279;28;20064;-81
2022/04/14 09:06:46;;;;;;;8.95;6.40;;;;;;;;;;5010720;28;20069;-78
2022/04/14 09:09:13;;;;;;;10.82;7.00;;;;;;;;;;5018145;28;20034;-80
2022/04/14 09:11:39;;;;;;;9.45;5.93;;;;;;;;;;5015975;28;20076;-78
2022/04/14 09:14:06;;;;;;;10.00;6.22;;;;;;;;;;5011368;28;20053;-78
2022/04/14 09:16:33;;;;;;;9.38;6.40;;;;;;;;;;5014393;28;20124;-80
2022/04/14 09:19:01;;;;;;;9.75;6.78;;;;;;;;;;5018091;28;20053;-80
2022/04/14 09:21:27;;;;;;;10.10;6.38;;;;;;;;;;5017292;28;20108;-79
2022/04/14 09:23:57;;;;;;;11.27;6.03;;;;;;;;;;5011755;28;20085;-78
2022/04/14 09:26:24;;;;;;;8.18;5.85;;;;;;;;;;5014029;28;20052;-79
2022/04/14 09:29:05;;;;;;;12.70;6.15;;;;;;;;;;5019260;28;20120;-79
2022/04/14 09:31:47;;;;;;;8.77;6.65;;;;;;;;;;5013621;28;20073;-79
2022/04/14 09:34:17;;;;;;;8.15;5.25;;;;;;;;;;5027761;28;20077;-80
2022/04/14 09:37:07;;;;;;;10.02;6.15;;;;;;;;;;5018575;28;20115;-79
2022/04/14 09:39:55;;;;;;;8.43;6.03;;;;;;;;;;5018715;28;20157;-80
2022/04/14 09:42:22;;;;;;;7.85;6.00;;;;;;;;;;5015064;28;20112;-81
2022/04/14 09:44:49;;;;;;;9.05;5.95;;;;;;;;;;5015373;28;20045;-80
2022/04/14 09:47:23;;;;;;;9.93;6.70;;;;;;;;;;5020772;28;20058;-81
2022/04/14 09:49:50;;;;;;;8.50;6.50;;;;;;;;;;5021245;28;20041;-80
2022/04/14 09:52:16;;;;;;;7.97;5.97;;;;;;;;;;5018609;28;20064;-80
2022/04/14 09:54:45;;;;;;;9.68;6.22;;;;;;;;;;5015658;28;20107;-79
2022/04/14 09:57:13;;;;;;;7.22;5.45;;;;;;;;;;5021045;28;20129;-78
2022/04/14 09:59:40;;;;;;;8.18;5.32;;;;;;;;;;5017185;28;20048;-80
2022/04/14 10:02:12;;;;;;;10.48;6.80;;;;;;;;;;5019027;28;20448;-79
2022/04/14 10:04:39;;;;;;;9.48;6.00;;;;;;;;;;5018709;28;20042;-79
2022/04/14 10:07:08;;;;;;;10.77;5.82;;;;;;;;;;5023156;28;20537;-80
2022/04/14 10:09:38;;;;;;;7.82;5.78;;;;;;;;;;5016736;28;20034;-80
2022/04/14 10:12:06;;;;;;;8.73;5.32;;;;;;;;;;5020197;28;20092;-77
2022/04/14 10:14:34;;;;;;;9.07;4.97;;;;;;;;;;5017339;28;20038;-79
2022/04/14 10:17:02;;;;;;;7.85;4.70;;;;;;;;;;5011620;28;20096;-77
2022/04/14 10:19:30;;;;;;;7.63;5.10;;;;;;;;;;5015233;28;20044;-79
2022/04/14 10:21:57;;;;;;;10.90;5.75;;;;;;;;;;5018538;28;20053;-78
2022/04/14 10:24:25;;;;;;;8.13;5.80;;;;;;;;;;5012641;28;20073;-78
2022/04/14 10:26:53;;;;;;;8.48;5.35;;;;;;;;;;5022675;28;20042;-79
2022/04/14 10:29:21;;;;;;;9.40;5.43;;;;;;;;;;5017620;28;20041;-78
2022/04/14 10:31:53;;;;;;;12.05;5.05;;;;;;;;;;4998555;28;20133;-79
2022/04/14 10:34:20;;;;;;;7.43;4.68;;;;;;;;;;5003353;28;20057;-80
2022/04/14 10:36:47;;;;;;;8.13;5.07;;;;;;;;;;5015355;28;20099;-78
2022/04/14 10:39:15;;;;;;;8.90;5.20;;;;;;;;;;5010856;28;20085;-78
2022/04/14 10:41:46;;;;;;;10.57;5.20;;;;;;;;;;5013861;28;20070;-78
2022/04/14 10:44:13;;;;;;;8.63;5.40;;;;;;;;;;5012774;28;20073;-78
2022/04/14 10:46:41;;;;;;;6.80;4.78;;;;;;;;;;5011457;28;20076;-79
2022/04/14 10:49:13;;;;;;;8.93;5.18;;;;;;;;;;5012507;28;20165;-78
2022/04/14 10:51:40;;;;;;;9.93;4.75;;;;;;;;;;5007824;28;20466;-79
2022/04/14 10:54:08;;;;;;;8.13;4.93;;;;;;;;;;5007080;28;20495;-79
2022/04/14 10:56:50;;;;;;;8.63;6.25;;;;;;;;;;5008492;28;20133;-79
2022/04/14 10:59:18;;;;;;;8.98;6.00;;;;;;;;;;5010734;28;20065;-79
2022/04/14 11:02:04;;;;;;;11.27;5.40;;;;;;;;;;5008279;28;20129;-78
2022/04/14 11:04:37;;;;;;;8.88;5.47;;;;;;;;;;5011604;28;20046;-79
2022/04/14 11:07:12;;;;;;;10.45;5.00;;;;;;;;;;5012364;28;20073;-78
2022/04/14 11:09:58;;;;;;;9.35;5.28;;;;;;;;;;5009540;28;20077;-79
2022/04/14 11:12:27;;;;;;;13.25;5.63;;;;;;;;;;5006339;28;20050;-79
2022/04/14 11:14:56;;;;;;;9.43;5.55;;;;;;;;;;5007914;28;20034;-78
2022/04/14 11:17:53;;;;;;;10.25;5.95;;;;;;;;;;5006999;28;20046;-80
2022/04/14 11:20:23;;;;;;;9.25;5.00;;;;;;;;;;5010067;28;20034;-79
2022/04/14 11:23:02;;;;;;;9.30;5.47;;;;;;;;;;5007998;28;20522;-78
2022/04/14 11:25:48;;;;;;;10.77;5.07;;;;;;;;;;5011187;28;20073;-79
2022/04/14 11:28:21;;;;;;;6.38;4.15;;;;;;;;;;5013143;28;20041;-79
2022/04/14 11:30:48;;;;;;;8.77;4.30;;;;;;;;;;5010414;28;20041;-78
2022/04/14 11:33:15;;;;;;;8.57;4.90;;;;;;;;;;5008852;28;20085;-78
2022/04/14 11:35:47;;;;;;;9.82;4.57;;;;;;;;;;5013234;28;20257;-79
2022/04/14 11:38:46;;;;;;;7.22;5.10;;;;;;;;;;5008840;28;20529;-78
2022/04/14 11:41:31;;;;;;;9.68;4.93;;;;;;;;;;5018958;28;20065;-81
2022/04/14 11:43:58;;;;;;;10.90;5.93;;;;;;;;;;5014715;28;20459;-83
2022/04/14 11:46:25;;;;;;;13.32;6.47;;;;;;;;;;5013986;28;20062;-85
2022/04/14 11:48:52;;;;;;;8.98;5.25;;;;;;;;;;5011880;28;20569;-81
2022/04/14 11:51:20;;;;;;;10.25;5.70;;;;;;;;;;5013244;28;20070;-82
2022/04/14 11:53:47;;;;;;;7.35;4.65;;;;;;;;;;5010560;28;20484;-84
2022/04/14 11:56:17;;;;;;;7.18;4.10;;;;;;;;;;5011113;28;20069;-80
2022/04/14 11:58:43;;;;;;;8.48;3.95;;;;;;;;;;5010538;28;20596;-82
2022/04/14 12:01:10;;;;;;;8.38;4.03;;;;;;;;;;5013639;28;20069;-84
2022/04/14 12:03:36;;;;;;;6.93;3.90;;;;;;;;;;5013614;28;20439;-83
2022/04/14 12:06:05;;;;;;;8.27;4.88;;;;;;;;;;5013496;28;20081;-81
2022/04/14 12:08:33;;;;;;;8.18;4.30;;;;;;;;;;5011000;28;20077;-82
2022/04/14 12:11:09;;;;;;;9.75;5.18;;;;;;;;;;5007149;28;20074;-83
2022/04/14 12:13:35;;;;;;;9.07;4.40;;;;;;;;;;5012132;28;20038;-84
2022/04/14 12:16:02;;;;;;;8.13;3.90;;;;;;;;;;5011838;28;20062;-83
2022/04/14 12:18:29;;;;;;;7.75;3.58;;;;;;;;;;5012419;28;20046;-83
2022/04/14 12:20:56;;;;;;;6.70;3.45;;;;;;;;;;5013827;28;20057;-83
2022/04/14 12:23:23;;;;;;;6.13;2.88;;;;;;;;;;5014774;28;20075;-83
2022/04/14 12:25:52;;;;;;;4.60;2.67;;;;;;;;;;5015379;28;20034;-82
2022/04/14 12:28:19;;;;;;;6.95;3.00;;;;;;;;;;5008460;28;20471;-84
2022/04/14 12:30:59;;;;;;;7.18;3.28;;;;;;;;;;5015282;28;20081;-83
2022/04/14 12:33:26;;;;;;;6.57;3.13;;;;;;;;;;5012222;28;20666;-83
2022/04/14 12:35:53;;;;;;;8.65;3.17;;;;;;;;;;5011369;28;20104;-83
2022/04/14 12:38:21;;;;;;;6.65;2.83;;;;;;;;;;5015334;28;20054;-81
2022/04/14 12:40:56;;;;;;;6.63;2.55;;;;;;;;;;5014234;28;20112;-83
2022/04/14 12:43:23;;;;;;;10.30;2.72;;;;;;;;;;5012291;28;20042;-83
2022/04/14 12:45:50;;;;;;;4.88;2.63;;;;;;;;;;5014402;28;20100;-80
2022/04/14 12:48:26;;;;;;;4.78;2.33;;;;;;;;;;5012280;28;20042;-82
2022/04/14 12:50:57;;;;;;;4.03;2.10;;;;;;;;;;5022061;28;20045;-82
2022/04/14 12:53:24;;;;;;;4.38;2.40;;;;;;;;;;5011670;28;20429;-82
2022/04/14 12:55:51;;;;;;;6.30;2.47;;;;;;;;;;5011943;28;20057;-83
2022/04/14 12:58:19;;;;;;;4.32;2.42;;;;;;;;;;5016536;28;20093;-81
2022/04/14 13:00:46;;;;;;;5.43;2.03;;;;;;;;;;5015317;28;20074;-83
2022/04/14 13:03:16;;;;;;;3.80;2.10;;;;;;;;;;5016541;28;20041;-83
2022/04/14 13:05:43;;;;;;;4.95;2.20;;;;;;;;;;5017328;28;20061;-84
2022/04/14 13:08:10;;;;;;;4.40;1.85;;;;;;;;;;5016880;28;20049;-84
2022/04/14 13:10:40;;;;;;;5.53;2.35;;;;;;;;;;5017845;28;20112;-83
2022/04/14 13:13:07;;;;;;;5.38;2.10;;;;;;;;;;5027894;28;21048;-83
2022/04/14 13:15:36;;;;;;;5.70;2.10;;;;;;;;;;5022217;28;20041;-81
2022/04/14 13:18:03;;;;;;;5.30;2.10;;;;;;;;;;5025410;28;20048;-82
2022/04/14 13:20:34;;;;;;;5.88;2.30;;;;;;;;;;5028986;28;20042;-82
2022/04/14 13:23:01;;;;;;;4.03;2.00;;;;;;;;;;5027916;28;20045;-81
2022/04/14 13:25:27;;;;;;;5.07;2.88;;;;;;;;;;5020345;28;20080;-81
2022/04/14 13:27:54;;;;;;;5.38;2.40;;;;;;;;;;5015134;28;20100;-81
2022/04/14 13:30:21;;;;;;;8.13;2.53;;;;;;;;;;5012649;28;20467;-81
2022/04/14 13:32:55;;;;;;;4.65;2.58;;;;;;;;;;5012306;28;20049;-81
2022/04/14 13:35:22;;;;;;;7.05;2.55;;;;;;;;;;5015291;28;20045;-81
2022/04/14 13:37:51;;;;;;;5.65;2.38;;;;;;;;;;5016443;28;20042;-82
2022/04/14 13:40:18;;;;;;;7.53;2.78;;;;;;;;;;5013573;28;20033;-80
2022/04/14 13:42:44;;;;;;;8.30;2.75;;;;;;;;;;5015470;28;20100;-81
2022/04/14 13:45:12;;;;;;;9.13;2.95;;;;;;;;;;5016875;28;20042;-81
2022/04/14 13:47:39;;;;;;;8.52;2.90;;;;;;;;;;5010534;28;20073;-81
2022/04/14 13:50:09;;;;;;;7.53;3.17;;;;;;;;;;5012047;28;20064;-81
2022/04/14 13:52:35;;;;;;;6.35;3.28;;;;;;;;;;5011123;28;20041;-80
2022/04/14 13:55:02;;;;;;;9.05;3.38;;;;;;;;;;5014353;28;20069;-82
2022/04/14 13:57:28;;;;;;;7.60;3.50;;;;;;;;;;5012743;28;20038;-81
2022/04/14 13:59:55;;;;;;;6.68;2.78;;;;;;;;;;5015690;28;20095;-81
2022/04/14 14:02:22;;;;;;;4.68;2.85;;;;;;;;;;5015052;28;20038;-81
2022/04/14 14:04:48;;;;;;;7.20;3.65;;;;;;;;;;5016128;28;20070;-82
2022/04/14 14:07:16;;;;;;;6.38;3.63;;;;;;;;;;5013059;28;20061;-81
2022/04/14 14:09:43;;;;;;;6.30;3.40;;;;;;;;;;5013592;28;20086;-83
2022/04/14 14:12:10;;;;;;;7.38;3.47;;;;;;;;;;5013359;28;20112;-82
2022/04/14 14:14:37;;;;;;;7.28;3.95;;;;;;;;;;5018013;28;20061;-84
2022/04/14 14:17:04;;;;;;;7.25;3.60;;;;;;;;;;5018855;28;20068;-81
2022/04/14 14:19:31;;;;;;;10.15;4.05;;;;;;;;;;5013972;28;20038;-82
2022/04/14 14:21:58;;;;;;;7.32;3.63;;;;;;;;;;5020615;28;20037;-83
2022/04/14 14:24:26;;;;;;;6.68;3.40;;;;;;;;;;5017197;28;20061;-81
2022/04/14 14:26:56;;;;;;;5.53;3.70;;;;;;;;;;5020168;28;20038;-81
2022/04/14 14:29:22;;;;;;;6.95;4.18;;;;;;;;;;5015686;28;20033;-82
2022/04/14 14:31:49;;;;;;;7.65;3.67;;;;;;;;;;5007447;28;20078;-84
2022/04/14 14:34:16;;;;;;;7.47;4.03;;;;;;;;;;5020200;28;20778;-82
2022/04/14 14:36:45;;;;;;;6.47;3.85;;;;;;;;;;5015585;28;20472;-82
2022/04/14 14:39:11;;;;;;;6.93;4.22;;;;;;;;;;5016134;28;20582;-84
2022/04/14 14:41:39;;;;;;;8.65;4.28;;;;;;;;;;5017665;28;20050;-84
2022/04/14 14:44:06;;;;;;;8.65;3.75;;;;;;;;;;5016442;28;20084;-83
2022/04/14 14:46:33;;;;;;;7.25;3.65;;;;;;;;;;5017622;28;20147;-83